sensor_id;sensor_type;location;lat;lon;timestamp;temperature;humidity
47310;DHT22;33046;52.270;6.832;2023-07-24T00:00:20;21.10;99.90
47310;DHT22;33046;52.270;6.832;2023-07-24T00:02:27;21.20;99.90
47310;DHT22;33046;52.270;6.832;2023-07-24T00:04:34;21.10;99.90
47310;DHT22;33046;52.270;6.832;2023-07-24T00:06:41;21.10;99.90
47310;DHT22;33046;52.270;6.832;2023-07-24T00:08:48;21.10;99.90
47310;DHT22;33046;52.270;6.832;2023-07-24T00:10:55;21.10;99.90
47310;DHT22;33046;52.270;6.832;2023-07-24T00:13:03;21.10;99.90
47310;DHT22;33046;52.270;6.832;2023-07-24T00:15:10;21.10;99.90
47310;DHT22;33046;52.270;6.832;2023-07-24T00:17:17;21.10;99.90
47310;DHT22;33046;52.270;6.832;2023-07-24T00:19:24;21.10;99.90
47310;DHT22;33046;52.270;6.832;2023-07-24T00:21:30;21.10;99.90
47310;DHT22;33046;52.270;6.832;2023-07-24T00:23:37;21.00;99.90
47310;DHT22;33046;52.270;6.832;2023-07-24T00:25:44;21.00;99.90
47310;DHT22;33046;52.270;6.832;2023-07-24T00:27:51;21.10;99.90
47310;DHT22;33046;52.270;6.832;2023-07-24T00:29:59;21.10;99.90
47310;DHT22;33046;52.270;6.832;2023-07-24T00:32:07;21.00;99.90
47310;DHT22;33046;52.270;6.832;2023-07-24T00:34:15;21.00;99.90
47310;DHT22;33046;52.270;6.832;2023-07-24T00:36:21;21.00;99.90
47310;DHT22;33046;52.270;6.832;2023-07-24T00:38:28;21.00;99.90
47310;DHT22;33046;52.270;6.832;2023-07-24T00:40:35;21.00;99.90
47310;DHT22;33046;52.270;6.832;2023-07-24T00:42:46;21.00;99.90
47310;DHT22;33046;52.270;6.832;2023-07-24T00:44:53;21.00;99.90
47310;DHT22;33046;52.270;6.832;2023-07-24T00:47:01;21.00;99.90
47310;DHT22;33046;52.270;6.832;2023-07-24T00:49:08;21.00;99.90
47310;DHT22;33046;52.270;6.832;2023-07-24T00:51:15;21.00;99.90
47310;DHT22;33046;52.270;6.832;2023-07-24T00:53:22;21.00;99.90
47310;DHT22;33046;52.270;6.832;2023-07-24T00:55:29;21.00;99.90
47310;DHT22;33046;52.270;6.832;2023-07-24T00:57:37;21.00;99.90
47310;DHT22;33046;52.270;6.832;2023-07-24T00:59:44;20.90;99.90
47310;DHT22;33046;52.270;6.832;2023-07-24T01:01:51;21.00;99.90
47310;DHT22;33046;52.270;6.832;2023-07-24T01:04:01;21.00;99.90
47310;DHT22;33046;52.270;6.832;2023-07-24T01:06:11;21.00;99.90
47310;DHT22;33046;52.270;6.832;2023-07-24T01:08:18;21.00;99.90
47310;DHT22;33046;52.270;6.832;2023-07-24T01:10:25;20.90;99.90
47310;DHT22;33046;52.270;6.832;2023-07-24T01:12:35;20.90;99.90
47310;DHT22;33046;52.270;6.832;2023-07-24T01:14:44;20.90;99.90
47310;DHT22;33046;52.270;6.832;2023-07-24T01:16:54;20.90;99.90
47310;DHT22;33046;52.270;6.832;2023-07-24T01:19:04;20.90;99.90
47310;DHT22;33046;52.270;6.832;2023-07-24T01:21:20;20.90;99.90
47310;DHT22;33046;52.270;6.832;2023-07-24T01:23:41;20.90;99.90
47310;DHT22;33046;52.270;6.832;2023-07-24T01:25:57;20.90;99.90
47310;DHT22;33046;52.270;6.832;2023-07-24T01:28:06;20.90;99.90
47310;DHT22;33046;52.270;6.832;2023-07-24T01:30:16;20.80;99.90
47310;DHT22;33046;52.270;6.832;2023-07-24T01:32:23;20.80;99.90
47310;DHT22;33046;52.270;6.832;2023-07-24T01:34:30;20.80;99.90
47310;DHT22;33046;52.270;6.832;2023-07-24T01:36:37;20.80;99.90
47310;DHT22;33046;52.270;6.832;2023-07-24T01:38:45;20.80;99.90
47310;DHT22;33046;52.270;6.832;2023-07-24T01:40:56;20.80;99.90
47310;DHT22;33046;52.270;6.832;2023-07-24T01:43:04;20.80;99.90
47310;DHT22;33046;52.270;6.832;2023-07-24T01:45:11;20.70;99.90
47310;DHT22;33046;52.270;6.832;2023-07-24T01:47:18;20.70;99.90
47310;DHT22;33046;52.270;6.832;2023-07-24T01:49:25;20.80;99.90
47310;DHT22;33046;52.270;6.832;2023-07-24T01:51:32;20.80;99.90
47310;DHT22;33046;52.270;6.832;2023-07-24T01:53:39;20.70;99.90
47310;DHT22;33046;52.270;6.832;2023-07-24T01:55:45;20.70;99.90
47310;DHT22;33046;52.270;6.832;2023-07-24T01:57:54;20.70;99.90
47310;DHT22;33046;52.270;6.832;2023-07-24T02:00:01;20.70;99.90
47310;DHT22;33046;52.270;6.832;2023-07-24T02:02:08;20.70;99.90
47310;DHT22;33046;52.270;6.832;2023-07-24T02:04:15;20.70;99.90
47310;DHT22;33046;52.270;6.832;2023-07-24T02:06:21;20.70;99.90
47310;DHT22;33046;52.270;6.832;2023-07-24T02:08:28;20.70;99.90
47310;DHT22;33046;52.270;6.832;2023-07-24T02:10:37;20.70;99.90
47310;DHT22;33046;52.270;6.832;2023-07-24T02:12:44;20.70;99.90
47310;DHT22;33046;52.270;6.832;2023-07-24T02:14:52;20.70;99.90
47310;DHT22;33046;52.270;6.832;2023-07-24T02:16:59;20.70;99.90
47310;DHT22;33046;52.270;6.832;2023-07-24T02:19:06;20.70;99.90
47310;DHT22;33046;52.270;6.832;2023-07-24T02:21:12;20.70;99.90
47310;DHT22;33046;52.270;6.832;2023-07-24T02:23:19;20.60;99.90
47310;DHT22;33046;52.270;6.832;2023-07-24T02:25:26;20.60;99.90
47310;DHT22;33046;52.270;6.832;2023-07-24T02:27:33;20.60;99.90
47310;DHT22;33046;52.270;6.832;2023-07-24T02:29:40;20.70;99.90
47310;DHT22;33046;52.270;6.832;2023-07-24T02:31:49;20.60;99.90
47310;DHT22;33046;52.270;6.832;2023-07-24T02:33:56;20.60;99.90
47310;DHT22;33046;52.270;6.832;2023-07-24T02:36:03;20.60;99.90
47310;DHT22;33046;52.270;6.832;2023-07-24T02:38:10;20.60;99.90
47310;DHT22;33046;52.270;6.832;2023-07-24T02:40:18;20.60;99.90
47310;DHT22;33046;52.270;6.832;2023-07-24T02:42:26;20.60;99.90
47310;DHT22;33046;52.270;6.832;2023-07-24T02:44:33;20.60;99.90
47310;DHT22;33046;52.270;6.832;2023-07-24T02:46:41;20.60;99.90
47310;DHT22;33046;52.270;6.832;2023-07-24T02:48:50;20.60;99.90
47310;DHT22;33046;52.270;6.832;2023-07-24T02:50:57;20.60;99.90
47310;DHT22;33046;52.270;6.832;2023-07-24T02:53:04;20.60;99.90
47310;DHT22;33046;52.270;6.832;2023-07-24T02:55:11;20.60;99.90
47310;DHT22;33046;52.270;6.832;2023-07-24T02:57:18;20.60;99.90
47310;DHT22;33046;52.270;6.832;2023-07-24T02:59:24;20.60;99.90
47310;DHT22;33046;52.270;6.832;2023-07-24T03:01:31;20.60;99.90
47310;DHT22;33046;52.270;6.832;2023-07-24T03:03:38;20.60;99.90
47310;DHT22;33046;52.270;6.832;2023-07-24T03:05:47;20.60;99.90
47310;DHT22;33046;52.270;6.832;2023-07-24T03:07:53;20.60;99.90
47310;DHT22;33046;52.270;6.832;2023-07-24T03:10:00;20.60;99.90
47310;DHT22;33046;52.270;6.832;2023-07-24T03:12:07;20.60;99.90
47310;DHT22;33046;52.270;6.832;2023-07-24T03:14:14;20.60;99.90
47310;DHT22;33046;52.270;6.832;2023-07-24T03:16:21;20.60;99.90
47310;DHT22;33046;52.270;6.832;2023-07-24T03:18:28;20.60;99.90
47310;DHT22;33046;52.270;6.832;2023-07-24T03:20:35;20.60;99.90
47310;DHT22;33046;52.270;6.832;2023-07-24T03:22:44;20.60;99.90
47310;DHT22;33046;52.270;6.832;2023-07-24T03:24:51;20.60;99.90
47310;DHT22;33046;52.270;6.832;2023-07-24T03:26:58;20.60;99.90
47310;DHT22;33046;52.270;6.832;2023-07-24T03:29:05;20.60;99.90
47310;DHT22;33046;52.270;6.832;2023-07-24T03:31:12;20.60;99.90
47310;DHT22;33046;52.270;6.832;2023-07-24T03:33:20;20.60;99.90
47310;DHT22;33046;52.270;6.832;2023-07-24T03:35:27;20.60;99.90
47310;DHT22;33046;52.270;6.832;2023-07-24T03:37:34;20.60;99.90
47310;DHT22;33046;52.270;6.832;2023-07-24T03:39:42;20.60;99.90
47310;DHT22;33046;52.270;6.832;2023-07-24T03:41:50;20.60;99.90
47310;DHT22;33046;52.270;6.832;2023-07-24T03:43:56;20.60;99.90
47310;DHT22;33046;52.270;6.832;2023-07-24T03:46:03;20.60;99.90
47310;DHT22;33046;52.270;6.832;2023-07-24T03:48:10;20.60;99.90
47310;DHT22;33046;52.270;6.832;2023-07-24T03:50:17;20.60;99.90
47310;DHT22;33046;52.270;6.832;2023-07-24T03:52:24;20.60;99.90
47310;DHT22;33046;52.270;6.832;2023-07-24T03:54:31;20.60;99.90
47310;DHT22;33046;52.270;6.832;2023-07-24T03:56:39;20.60;99.90
47310;DHT22;33046;52.270;6.832;2023-07-24T03:58:46;20.60;99.90
47310;DHT22;33046;52.270;6.832;2023-07-24T04:00:53;20.60;99.90
47310;DHT22;33046;52.270;6.832;2023-07-24T04:03:00;20.60;99.90
47310;DHT22;33046;52.270;6.832;2023-07-24T04:05:07;20.60;99.90
47310;DHT22;33046;52.270;6.832;2023-07-24T04:07:14;20.60;99.90
47310;DHT22;33046;52.270;6.832;2023-07-24T04:09:21;20.50;99.90
47310;DHT22;33046;52.270;6.832;2023-07-24T04:11:28;20.60;99.90
47310;DHT22;33046;52.270;6.832;2023-07-24T04:13:36;20.50;99.90
47310;DHT22;33046;52.270;6.832;2023-07-24T04:15:43;20.60;99.90
47310;DHT22;33046;52.270;6.832;2023-07-24T04:17:50;20.60;99.90
47310;DHT22;33046;52.270;6.832;2023-07-24T04:19:56;20.60;99.90
47310;DHT22;33046;52.270;6.832;2023-07-24T04:22:03;20.60;99.90
47310;DHT22;33046;52.270;6.832;2023-07-24T04:24:10;20.50;99.90
47310;DHT22;33046;52.270;6.832;2023-07-24T04:26:17;20.50;99.90
47310;DHT22;33046;52.270;6.832;2023-07-24T04:28:24;20.50;99.90
47310;DHT22;33046;52.270;6.832;2023-07-24T04:30:32;20.50;99.90
47310;DHT22;33046;52.270;6.832;2023-07-24T04:32:39;20.50;99.90
47310;DHT22;33046;52.270;6.832;2023-07-24T04:34:46;20.50;99.90
47310;DHT22;33046;52.270;6.832;2023-07-24T04:36:53;20.50;99.90
47310;DHT22;33046;52.270;6.832;2023-07-24T04:39:00;20.50;99.90
47310;DHT22;33046;52.270;6.832;2023-07-24T04:41:07;20.50;99.90
47310;DHT22;33046;52.270;6.832;2023-07-24T04:43:14;20.50;99.90
47310;DHT22;33046;52.270;6.832;2023-07-24T04:45:20;20.50;99.90
47310;DHT22;33046;52.270;6.832;2023-07-24T04:47:30;20.50;99.90
47310;DHT22;33046;52.270;6.832;2023-07-24T04:49:37;20.50;99.90
47310;DHT22;33046;52.270;6.832;2023-07-24T04:51:44;20.50;99.90
47310;DHT22;33046;52.270;6.832;2023-07-24T04:53:51;20.50;99.90
47310;DHT22;33046;52.270;6.832;2023-07-24T04:56:00;20.50;99.90
47310;DHT22;33046;52.270;6.832;2023-07-24T04:58:06;20.50;99.90
47310;DHT22;33046;52.270;6.832;2023-07-24T05:00:14;20.50;99.90
47310;DHT22;33046;52.270;6.832;2023-07-24T05:02:21;20.50;99.90
47310;DHT22;33046;52.270;6.832;2023-07-24T05:04:29;20.50;99.90
47310;DHT22;33046;52.270;6.832;2023-07-24T05:06:36;20.50;99.90
47310;DHT22;33046;52.270;6.832;2023-07-24T05:08:43;20.50;99.90
47310;DHT22;33046;52.270;6.832;2023-07-24T05:10:54;20.40;99.90
47310;DHT22;33046;52.270;6.832;2023-07-24T05:13:01;20.40;99.90
47310;DHT22;33046;52.270;6.832;2023-07-24T05:15:08;20.40;99.90
47310;DHT22;33046;52.270;6.832;2023-07-24T05:17:15;20.40;99.90
47310;DHT22;33046;52.270;6.832;2023-07-24T05:19:22;20.40;99.90
47310;DHT22;33046;52.270;6.832;2023-07-24T05:21:31;20.40;99.90
47310;DHT22;33046;52.270;6.832;2023-07-24T05:23:38;20.40;99.90
47310;DHT22;33046;52.270;6.832;2023-07-24T05:25:44;20.40;99.90
47310;DHT22;33046;52.270;6.832;2023-07-24T05:27:51;20.40;99.90
47310;DHT22;33046;52.270;6.832;2023-07-24T05:29:58;20.40;99.90
47310;DHT22;33046;52.270;6.832;2023-07-24T05:32:06;20.40;99.90
47310;DHT22;33046;52.270;6.832;2023-07-24T05:34:12;20.40;99.90
47310;DHT22;33046;52.270;6.832;2023-07-24T05:36:19;20.40;99.90
47310;DHT22;33046;52.270;6.832;2023-07-24T05:38:28;20.50;99.90
47310;DHT22;33046;52.270;6.832;2023-07-24T05:40:35;20.40;99.90
47310;DHT22;33046;52.270;6.832;2023-07-24T05:42:42;20.50;99.90
47310;DHT22;33046;52.270;6.832;2023-07-24T05:44:48;20.50;99.90
47310;DHT22;33046;52.270;6.832;2023-07-24T05:46:55;20.50;99.90
47310;DHT22;33046;52.270;6.832;2023-07-24T05:49:02;20.50;99.90
47310;DHT22;33046;52.270;6.832;2023-07-24T05:51:09;20.50;99.90
47310;DHT22;33046;52.270;6.832;2023-07-24T05:53:16;20.50;99.90
47310;DHT22;33046;52.270;6.832;2023-07-24T05:55:25;20.50;99.90
47310;DHT22;33046;52.270;6.832;2023-07-24T05:57:31;20.50;99.90
47310;DHT22;33046;52.270;6.832;2023-07-24T05:59:38;20.40;99.90
47310;DHT22;33046;52.270;6.832;2023-07-24T06:01:45;20.40;99.90
47310;DHT22;33046;52.270;6.832;2023-07-24T06:03:52;20.40;99.90
47310;DHT22;33046;52.270;6.832;2023-07-24T06:05:59;20.40;99.90
47310;DHT22;33046;52.270;6.832;2023-07-24T06:08:06;20.40;99.90
47310;DHT22;33046;52.270;6.832;2023-07-24T06:10:13;20.30;99.90
47310;DHT22;33046;52.270;6.832;2023-07-24T06:12:21;20.30;99.90
47310;DHT22;33046;52.270;6.832;2023-07-24T06:14:28;20.30;99.90
47310;DHT22;33046;52.270;6.832;2023-07-24T06:16:35;20.30;99.90
47310;DHT22;33046;52.270;6.832;2023-07-24T06:18:42;20.30;99.90
47310;DHT22;33046;52.270;6.832;2023-07-24T06:20:53;20.30;99.90
47310;DHT22;33046;52.270;6.832;2023-07-24T06:23:00;20.30;99.90
47310;DHT22;33046;52.270;6.832;2023-07-24T06:25:08;20.30;99.90
47310;DHT22;33046;52.270;6.832;2023-07-24T06:27:15;20.30;99.90
47310;DHT22;33046;52.270;6.832;2023-07-24T06:29:23;20.30;99.90
47310;DHT22;33046;52.270;6.832;2023-07-24T06:31:30;20.30;99.90
47310;DHT22;33046;52.270;6.832;2023-07-24T06:33:37;20.30;99.90
47310;DHT22;33046;52.270;6.832;2023-07-24T06:35:44;20.30;99.90
47310;DHT22;33046;52.270;6.832;2023-07-24T06:37:50;20.40;99.90
47310;DHT22;33046;52.270;6.832;2023-07-24T06:39:57;20.40;99.90
47310;DHT22;33046;52.270;6.832;2023-07-24T06:42:04;20.40;99.90
47310;DHT22;33046;52.270;6.832;2023-07-24T06:44:11;20.50;99.90
47310;DHT22;33046;52.270;6.832;2023-07-24T06:46:20;20.50;99.90
47310;DHT22;33046;52.270;6.832;2023-07-24T06:48:26;20.60;99.90
47310;DHT22;33046;52.270;6.832;2023-07-24T06:50:33;20.60;99.90
47310;DHT22;33046;52.270;6.832;2023-07-24T06:52:40;20.60;99.90
47310;DHT22;33046;52.270;6.832;2023-07-24T06:54:47;20.60;99.90
47310;DHT22;33046;52.270;6.832;2023-07-24T06:56:54;20.70;99.90
47310;DHT22;33046;52.270;6.832;2023-07-24T06:59:01;20.80;99.90
47310;DHT22;33046;52.270;6.832;2023-07-24T07:01:08;20.80;99.90
47310;DHT22;33046;52.270;6.832;2023-07-24T07:03:16;20.90;99.90
47310;DHT22;33046;52.270;6.832;2023-07-24T07:05:23;20.90;99.90
47310;DHT22;33046;52.270;6.832;2023-07-24T07:07:30;21.00;99.90
47310;DHT22;33046;52.270;6.832;2023-07-24T07:09:37;21.10;99.90
47310;DHT22;33046;52.270;6.832;2023-07-24T07:11:43;21.10;99.90
47310;DHT22;33046;52.270;6.832;2023-07-24T07:13:50;21.10;99.90
47310;DHT22;33046;52.270;6.832;2023-07-24T07:15:57;21.20;99.90
47310;DHT22;33046;52.270;6.832;2023-07-24T07:18:04;21.20;99.90
47310;DHT22;33046;52.270;6.832;2023-07-24T07:20:12;21.30;99.90
47310;DHT22;33046;52.270;6.832;2023-07-24T07:22:19;21.30;99.90
47310;DHT22;33046;52.270;6.832;2023-07-24T07:24:26;21.30;99.90
47310;DHT22;33046;52.270;6.832;2023-07-24T07:26:33;21.30;99.90
47310;DHT22;33046;52.270;6.832;2023-07-24T07:28:40;21.40;99.90
47310;DHT22;33046;52.270;6.832;2023-07-24T07:30:47;21.50;99.90
47310;DHT22;33046;52.270;6.832;2023-07-24T07:32:54;21.50;99.90
47310;DHT22;33046;52.270;6.832;2023-07-24T07:35:01;21.60;99.90
47310;DHT22;33046;52.270;6.832;2023-07-24T07:37:09;21.60;99.90
47310;DHT22;33046;52.270;6.832;2023-07-24T07:39:16;21.70;99.90
47310;DHT22;33046;52.270;6.832;2023-07-24T07:41:23;21.70;99.90
47310;DHT22;33046;52.270;6.832;2023-07-24T07:43:29;21.80;99.90
47310;DHT22;33046;52.270;6.832;2023-07-24T07:45:36;21.90;99.90
47310;DHT22;33046;52.270;6.832;2023-07-24T07:47:43;21.90;99.70
47310;DHT22;33046;52.270;6.832;2023-07-24T07:49:50;22.00;99.70
47310;DHT22;33046;52.270;6.832;2023-07-24T07:51:57;22.00;99.40
47310;DHT22;33046;52.270;6.832;2023-07-24T07:54:05;22.10;99.40
47310;DHT22;33046;52.270;6.832;2023-07-24T07:56:12;22.30;99.20
47310;DHT22;33046;52.270;6.832;2023-07-24T07:58:19;22.40;99.00
47310;DHT22;33046;52.270;6.832;2023-07-24T08:00:26;22.40;98.70
47310;DHT22;33046;52.270;6.832;2023-07-24T08:02:32;22.50;98.20
47310;DHT22;33046;52.270;6.832;2023-07-24T08:04:39;22.60;98.60
47310;DHT22;33046;52.270;6.832;2023-07-24T08:06:46;22.60;98.10
47310;DHT22;33046;52.270;6.832;2023-07-24T08:08:53;22.60;98.10
47310;DHT22;33046;52.270;6.832;2023-07-24T08:11:05;22.70;97.70
47310;DHT22;33046;52.270;6.832;2023-07-24T08:13:11;22.80;98.00
47310;DHT22;33046;52.270;6.832;2023-07-24T08:15:18;22.80;97.30
47310;DHT22;33046;52.270;6.832;2023-07-24T08:17:25;22.80;97.10
47310;DHT22;33046;52.270;6.832;2023-07-24T08:19:32;22.80;96.70
47310;DHT22;33046;52.270;6.832;2023-07-24T08:21:39;22.90;97.00
47310;DHT22;33046;52.270;6.832;2023-07-24T08:23:46;22.90;96.70
47310;DHT22;33046;52.270;6.832;2023-07-24T08:25:53;23.00;96.80
47310;DHT22;33046;52.270;6.832;2023-07-24T08:28:02;23.10;96.40
47310;DHT22;33046;52.270;6.832;2023-07-24T08:30:11;23.10;96.10
47310;DHT22;33046;52.270;6.832;2023-07-24T08:32:18;23.20;95.70
47310;DHT22;33046;52.270;6.832;2023-07-24T08:34:25;23.20;95.70
47310;DHT22;33046;52.270;6.832;2023-07-24T08:36:32;23.10;95.20
47310;DHT22;33046;52.270;6.832;2023-07-24T08:38:40;23.20;95.40
47310;DHT22;33046;52.270;6.832;2023-07-24T08:40:47;23.10;95.30
47310;DHT22;33046;52.270;6.832;2023-07-24T08:42:54;23.10;95.30
47310;DHT22;33046;52.270;6.832;2023-07-24T08:45:03;23.10;94.90
47310;DHT22;33046;52.270;6.832;2023-07-24T08:47:11;23.10;95.20
47310;DHT22;33046;52.270;6.832;2023-07-24T08:49:18;23.10;95.30
47310;DHT22;33046;52.270;6.832;2023-07-24T08:51:26;23.10;94.90
47310;DHT22;33046;52.270;6.832;2023-07-24T08:53:34;23.00;95.20
47310;DHT22;33046;52.270;6.832;2023-07-24T08:55:42;23.10;95.20
47310;DHT22;33046;52.270;6.832;2023-07-24T08:57:49;23.20;95.30
47310;DHT22;33046;52.270;6.832;2023-07-24T08:59:56;23.40;95.90
47310;DHT22;33046;52.270;6.832;2023-07-24T09:02:04;23.50;95.50
47310;DHT22;33046;52.270;6.832;2023-07-24T09:04:12;23.60;95.00
47310;DHT22;33046;52.270;6.832;2023-07-24T09:06:18;23.60;94.90
47310;DHT22;33046;52.270;6.832;2023-07-24T09:08:29;23.70;94.90
47310;DHT22;33046;52.270;6.832;2023-07-24T09:10:36;23.80;95.00
47310;DHT22;33046;52.270;6.832;2023-07-24T09:12:44;23.90;94.40
47310;DHT22;33046;52.270;6.832;2023-07-24T09:15:01;24.00;94.60
47310;DHT22;33046;52.270;6.832;2023-07-24T09:17:10;24.00;92.50
47310;DHT22;33046;52.270;6.832;2023-07-24T09:19:17;23.90;92.50
47310;DHT22;33046;52.270;6.832;2023-07-24T09:21:32;23.90;92.20
47310;DHT22;33046;52.270;6.832;2023-07-24T09:23:39;23.90;92.60
47310;DHT22;33046;52.270;6.832;2023-07-24T09:25:46;23.90;92.70
47310;DHT22;33046;52.270;6.832;2023-07-24T09:27:53;23.80;92.30
47310;DHT22;33046;52.270;6.832;2023-07-24T09:30:00;23.80;93.20
47310;DHT22;33046;52.270;6.832;2023-07-24T09:32:18;23.70;93.20
47310;DHT22;33046;52.270;6.832;2023-07-24T09:34:25;23.70;93.70
47310;DHT22;33046;52.270;6.832;2023-07-24T09:36:37;23.60;93.00
47310;DHT22;33046;52.270;6.832;2023-07-24T09:38:44;23.60;93.30
47310;DHT22;33046;52.270;6.832;2023-07-24T09:40:53;23.50;93.80
47310;DHT22;33046;52.270;6.832;2023-07-24T09:43:00;23.60;93.50
47310;DHT22;33046;52.270;6.832;2023-07-24T09:45:17;23.60;93.80
47310;DHT22;33046;52.270;6.832;2023-07-24T09:47:25;23.60;93.30
47310;DHT22;33046;52.270;6.832;2023-07-24T09:49:38;23.60;92.90
47310;DHT22;33046;52.270;6.832;2023-07-24T09:51:48;23.60;93.30
47310;DHT22;33046;52.270;6.832;2023-07-24T09:54:00;23.60;92.70
47310;DHT22;33046;52.270;6.832;2023-07-24T09:56:09;23.60;92.50
47310;DHT22;33046;52.270;6.832;2023-07-24T09:58:16;23.60;91.50
47310;DHT22;33046;52.270;6.832;2023-07-24T10:00:24;23.60;92.30
47310;DHT22;33046;52.270;6.832;2023-07-24T10:02:33;23.70;92.30
47310;DHT22;33046;52.270;6.832;2023-07-24T10:04:40;23.60;92.70
47310;DHT22;33046;52.270;6.832;2023-07-24T10:06:48;23.60;93.10
47310;DHT22;33046;52.270;6.832;2023-07-24T10:08:56;23.70;93.70
47310;DHT22;33046;52.270;6.832;2023-07-24T10:11:03;23.70;93.80
47310;DHT22;33046;52.270;6.832;2023-07-24T10:13:12;23.70;93.40
47310;DHT22;33046;52.270;6.832;2023-07-24T10:15:19;23.80;93.30
47310;DHT22;33046;52.270;6.832;2023-07-24T10:17:38;23.90;93.40
47310;DHT22;33046;52.270;6.832;2023-07-24T10:19:45;24.00;92.60
47310;DHT22;33046;52.270;6.832;2023-07-24T10:21:52;24.10;92.60
47310;DHT22;33046;52.270;6.832;2023-07-24T10:24:00;24.10;92.60
47310;DHT22;33046;52.270;6.832;2023-07-24T10:26:07;24.20;92.00
47310;DHT22;33046;52.270;6.832;2023-07-24T10:28:15;24.30;92.10
47310;DHT22;33046;52.270;6.832;2023-07-24T10:30:28;24.40;91.90
47310;DHT22;33046;52.270;6.832;2023-07-24T10:32:46;24.50;92.40
47310;DHT22;33046;52.270;6.832;2023-07-24T10:34:58;24.60;92.20
47310;DHT22;33046;52.270;6.832;2023-07-24T10:37:07;24.50;91.90
47310;DHT22;33046;52.270;6.832;2023-07-24T10:39:15;24.40;91.90
47310;DHT22;33046;52.270;6.832;2023-07-24T10:41:23;24.40;91.50
47310;DHT22;33046;52.270;6.832;2023-07-24T10:43:41;24.40;91.30
47310;DHT22;33046;52.270;6.832;2023-07-24T10:45:51;24.40;91.30
47310;DHT22;33046;52.270;6.832;2023-07-24T10:48:00;24.30;91.10
47310;DHT22;33046;52.270;6.832;2023-07-24T10:50:08;24.30;90.80
47310;DHT22;33046;52.270;6.832;2023-07-24T10:52:15;24.20;91.40
47310;DHT22;33046;52.270;6.832;2023-07-24T10:54:22;24.20;91.40
47310;DHT22;33046;52.270;6.832;2023-07-24T10:56:29;24.20;91.30
47310;DHT22;33046;52.270;6.832;2023-07-24T10:58:35;24.10;91.50
47310;DHT22;33046;52.270;6.832;2023-07-24T11:00:43;24.10;91.40
47310;DHT22;33046;52.270;6.832;2023-07-24T11:02:52;24.10;91.10
47310;DHT22;33046;52.270;6.832;2023-07-24T11:05:00;24.10;91.30
47310;DHT22;33046;52.270;6.832;2023-07-24T11:07:07;24.10;90.70
47310;DHT22;33046;52.270;6.832;2023-07-24T11:09:14;24.20;90.80
47310;DHT22;33046;52.270;6.832;2023-07-24T11:11:21;24.20;91.00
47310;DHT22;33046;52.270;6.832;2023-07-24T11:13:28;24.20;91.00
47310;DHT22;33046;52.270;6.832;2023-07-24T11:15:35;24.20;90.90
47310;DHT22;33046;52.270;6.832;2023-07-24T11:17:42;24.20;90.90
47310;DHT22;33046;52.270;6.832;2023-07-24T11:19:49;24.20;91.20
47310;DHT22;33046;52.270;6.832;2023-07-24T11:21:58;24.20;91.20
47310;DHT22;33046;52.270;6.832;2023-07-24T11:24:06;24.10;91.10
47310;DHT22;33046;52.270;6.832;2023-07-24T11:26:14;24.00;91.00
47310;DHT22;33046;52.270;6.832;2023-07-24T11:28:20;23.90;90.50
47310;DHT22;33046;52.270;6.832;2023-07-24T11:30:27;23.90;90.80
47310;DHT22;33046;52.270;6.832;2023-07-24T11:32:34;23.80;90.70
47310;DHT22;33046;52.270;6.832;2023-07-24T11:34:41;23.70;91.00
47310;DHT22;33046;52.270;6.832;2023-07-24T11:36:49;23.70;90.80
47310;DHT22;33046;52.270;6.832;2023-07-24T11:38:57;23.70;91.10
47310;DHT22;33046;52.270;6.832;2023-07-24T11:41:04;23.70;90.70
47310;DHT22;33046;52.270;6.832;2023-07-24T11:43:18;23.70;90.80
47310;DHT22;33046;52.270;6.832;2023-07-24T11:45:25;23.80;90.60
47310;DHT22;33046;52.270;6.832;2023-07-24T11:47:41;23.80;90.80
47310;DHT22;33046;52.270;6.832;2023-07-24T11:49:58;23.90;90.10
47310;DHT22;33046;52.270;6.832;2023-07-24T11:52:06;23.80;90.40
47310;DHT22;33046;52.270;6.832;2023-07-24T11:54:15;23.90;90.40
47310;DHT22;33046;52.270;6.832;2023-07-24T11:56:22;23.90;90.40
47310;DHT22;33046;52.270;6.832;2023-07-24T11:58:29;23.90;90.30
47310;DHT22;33046;52.270;6.832;2023-07-24T12:00:36;23.90;90.30
47310;DHT22;33046;52.270;6.832;2023-07-24T12:02:43;23.90;90.50
47310;DHT22;33046;52.270;6.832;2023-07-24T12:04:54;23.90;90.50
47310;DHT22;33046;52.270;6.832;2023-07-24T12:07:07;23.90;90.60
47310;DHT22;33046;52.270;6.832;2023-07-24T12:09:15;23.90;90.50
47310;DHT22;33046;52.270;6.832;2023-07-24T12:11:25;23.90;90.40
47310;DHT22;33046;52.270;6.832;2023-07-24T12:13:32;23.90;90.20
47310;DHT22;33046;52.270;6.832;2023-07-24T12:15:38;23.90;90.10
47310;DHT22;33046;52.270;6.832;2023-07-24T12:17:45;23.90;90.00
47310;DHT22;33046;52.270;6.832;2023-07-24T12:19:52;24.00;90.30
47310;DHT22;33046;52.270;6.832;2023-07-24T12:21:59;24.00;90.00
47310;DHT22;33046;52.270;6.832;2023-07-24T12:24:06;24.00;90.00
47310;DHT22;33046;52.270;6.832;2023-07-24T12:26:14;24.10;90.60
47310;DHT22;33046;52.270;6.832;2023-07-24T12:28:21;24.10;90.30
47310;DHT22;33046;52.270;6.832;2023-07-24T12:30:28;24.20;90.50
47310;DHT22;33046;52.270;6.832;2023-07-24T12:32:35;24.20;90.40
47310;DHT22;33046;52.270;6.832;2023-07-24T12:34:42;24.30;89.60
47310;DHT22;33046;52.270;6.832;2023-07-24T12:36:48;24.30;89.30
47310;DHT22;33046;52.270;6.832;2023-07-24T12:38:55;24.30;90.00
47310;DHT22;33046;52.270;6.832;2023-07-24T12:41:02;24.30;89.10
47310;DHT22;33046;52.270;6.832;2023-07-24T12:43:10;24.30;89.20
47310;DHT22;33046;52.270;6.832;2023-07-24T12:45:17;24.30;89.40
47310;DHT22;33046;52.270;6.832;2023-07-24T12:47:24;24.30;90.00
47310;DHT22;33046;52.270;6.832;2023-07-24T12:49:31;24.30;89.40
47310;DHT22;33046;52.270;6.832;2023-07-24T12:51:38;24.20;89.50
47310;DHT22;33046;52.270;6.832;2023-07-24T12:53:45;24.30;89.40
47310;DHT22;33046;52.270;6.832;2023-07-24T12:55:52;24.40;90.10
47310;DHT22;33046;52.270;6.832;2023-07-24T12:57:59;24.40;90.10
47310;DHT22;33046;52.270;6.832;2023-07-24T13:00:09;24.50;88.70
47310;DHT22;33046;52.270;6.832;2023-07-24T13:02:16;24.40;89.00
47310;DHT22;33046;52.270;6.832;2023-07-24T13:04:23;24.50;89.20
47310;DHT22;33046;52.270;6.832;2023-07-24T13:06:30;24.60;89.50
47310;DHT22;33046;52.270;6.832;2023-07-24T13:08:37;24.60;89.40
47310;DHT22;33046;52.270;6.832;2023-07-24T13:10:43;24.60;89.40
47310;DHT22;33046;52.270;6.832;2023-07-24T13:12:50;24.60;89.40
47310;DHT22;33046;52.270;6.832;2023-07-24T13:14:57;24.60;89.00
47310;DHT22;33046;52.270;6.832;2023-07-24T13:17:06;24.70;88.30
47310;DHT22;33046;52.270;6.832;2023-07-24T13:19:13;24.70;88.50
47310;DHT22;33046;52.270;6.832;2023-07-24T13:21:20;24.70;88.20
47310;DHT22;33046;52.270;6.832;2023-07-24T13:23:27;24.80;88.00
47310;DHT22;33046;52.270;6.832;2023-07-24T13:25:34;24.80;88.40